Time;durP1;ratioP1;P1;durP2;ratioP2;P2;SDS_P1;SDS_P2;PMS_P1;PMS_P2;Temp;Humidity;BMP_temperature;BMP_pressure;BME280_temperature;BME280_humidity;BME280_pressure;Samples;Min_cycle;Max_cycle;Signal;HPM_P1;HPM_P2
2022/12/31 00:00:20;;;;;;;2.05;1.20;;;;;;;12.99;100.00;100055.41;5055413;28;20127;-60
2022/12/31 00:02:47;;;;;;;3.40;1.10;;;;;;;12.98;100.00;100063.56;5036512;28;20047;-60
2022/12/31 00:05:14;;;;;;;4.10;1.20;;;;;;;12.85;100.00;100054.41;5092696;28;20042;-61
2022/12/31 00:07:41;;;;;;;2.17;1.17;;;;;;;12.76;100.00;100060.03;5075191;28;20089;-60
2022/12/31 00:10:07;;;;;;;4.18;1.10;;;;;;;12.63;100.00;100050.84;5092328;28;20040;-60
2022/12/31 00:12:34;;;;;;;2.97;1.20;;;;;;;12.66;100.00;100057.63;5053099;28;20047;-61
2022/12/31 00:15:02;;;;;;;3.20;1.20;;;;;;;12.64;100.00;100039.22;5092644;28;20062;-60
2022/12/31 00:17:29;;;;;;;3.42;1.25;;;;;;;12.65;100.00;100046.16;5075407;28;20078;-60
2022/12/31 00:19:56;;;;;;;3.97;1.17;;;;;;;12.61;100.00;100047.56;5075140;28;20646;-60
2022/12/31 00:22:23;;;;;;;4.30;1.30;;;;;;;12.57;100.00;100040.97;5058608;28;20493;-61
2022/12/31 00:24:51;;;;;;;3.35;1.45;;;;;;;12.55;100.00;100042.97;5075576;28;20489;-60
2022/12/31 00:27:17;;;;;;;4.18;1.38;;;;;;;12.58;100.00;100044.44;5075415;28;20127;-60
2022/12/31 00:29:44;;;;;;;3.90;1.42;;;;;;;12.54;100.00;100036.00;5092576;28;20174;-60
2022/12/31 00:32:11;;;;;;;6.13;1.50;;;;;;;12.57;100.00;100032.13;5042643;28;20044;-60
2022/12/31 00:34:38;;;;;;;3.15;1.58;;;;;;;12.48;100.00;100031.41;5093164;28;20044;-61
2022/12/31 00:37:05;;;;;;;3.67;1.55;;;;;;;12.46;100.00;100028.94;5093218;28;20044;-60
2022/12/31 00:39:31;;;;;;;2.88;1.25;;;;;;;12.43;100.00;100026.63;5093460;28;20044;-61
2022/12/31 00:41:58;;;;;;;3.33;1.60;;;;;;;12.53;100.00;100029.00;5095838;28;20403;-61
2022/12/31 00:44:25;;;;;;;4.70;1.52;;;;;;;12.59;100.00;100022.97;5079423;28;20048;-60
2022/12/31 00:46:52;;;;;;;3.85;1.50;;;;;;;12.62;100.00;100019.09;5096326;28;20051;-60
2022/12/31 00:49:19;;;;;;;4.28;1.60;;;;;;;12.66;100.00;100025.69;5046173;28;20075;-60
2022/12/31 00:51:46;;;;;;;4.78;1.42;;;;;;;12.65;100.00;100019.56;5097291;28;20508;-60
2022/12/31 00:54:13;;;;;;;4.53;1.40;;;;;;;12.69;100.00;100012.03;5096976;28;20044;-60
2022/12/31 00:56:41;;;;;;;2.78;1.42;;;;;;;12.76;100.00;100004.94;5091385;28;20524;-61
2022/12/31 00:59:07;;;;;;;3.78;1.00;;;;;;;12.82;100.00;100006.03;5074049;28;20050;-60
2022/12/31 01:01:37;;;;;;;2.47;1.13;;;;;;;12.78;100.00;100002.13;5076027;28;20040;-61
2022/12/31 01:04:06;;;;;;;5.50;1.10;;;;;;;12.81;100.00;99999.09;5085616;28;20063;-61
2022/12/31 01:06:34;;;;;;;5.72;1.38;;;;;;;12.91;100.00;99988.13;5096709;28;20043;-61
2022/12/31 01:09:01;;;;;;;5.45;1.30;;;;;;;12.95;100.00;99992.91;5069090;28;20051;-60
2022/12/31 01:11:29;;;;;;;3.80;1.10;;;;;;;13.00;100.00;99992.31;5056295;28;20042;-60
2022/12/31 01:14:04;;;;;;;3.40;1.25;;;;;;;12.98;100.00;99992.50;5045972;28;20124;-60
2022/12/31 01:16:35;;;;;;;3.70;1.20;;;;;;;12.95;100.00;99992.06;5095429;28;20366;-60
2022/12/31 01:19:05;;;;;;;6.28;1.38;;;;;;;12.95;100.00;100008.03;5094962;28;20044;-60
2022/12/31 01:21:32;;;;;;;3.20;1.30;;;;;;;12.98;100.00;99997.84;5095574;28;20464;-61
2022/12/31 01:23:59;;;;;;;3.17;1.20;;;;;;;12.91;100.00;99993.47;5078469;28;20052;-60
2022/12/31 01:26:26;;;;;;;4.80;1.30;;;;;;;12.90;100.00;99989.13;5095618;28;20043;-61
2022/12/31 01:28:54;;;;;;;2.30;1.25;;;;;;;12.83;100.00;99997.06;5096426;28;20097;-61
2022/12/31 01:31:22;;;;;;;2.35;1.30;;;;;;;12.87;100.00;100001.81;5096451;28;20097;-60
2022/12/31 01:33:50;;;;;;;4.97;1.52;;;;;;;12.84;100.00;99994.22;5096615;28;20047;-61
2022/12/31 01:36:21;;;;;;;3.95;1.60;;;;;;;12.81;100.00;99989.25;5095661;28;20040;-61
2022/12/31 01:38:51;;;;;;;4.95;1.90;;;;;;;12.72;100.00;99995.69;5095209;28;20067;-60
2022/12/31 01:41:21;;;;;;;7.70;2.10;;;;;;;12.75;100.00;99989.16;5094600;28;20036;-60
2022/12/31 01:43:53;;;;;;;4.65;1.73;;;;;;;12.73;100.00;99999.19;5096473;28;20076;-60
2022/12/31 01:46:43;;;;;;;4.60;1.67;;;;;;;12.71;100.00;100012.66;5096154;28;20052;-60
2022/12/31 01:49:20;;;;;;;4.93;1.70;;;;;;;12.86;100.00;99999.31;5096052;28;20051;-60
2022/12/31 01:51:53;;;;;;;2.63;1.00;;;;;;;13.13;100.00;99995.13;5095840;28;20119;-61
2022/12/31 01:54:21;;;;;;;1.42;0.80;;;;;;;13.50;100.00;100003.94;5095836;28;20051;-61
2022/12/31 01:56:51;;;;;;;2.90;0.90;;;;;;;13.81;99.43;100006.25;5095707;28;20043;-60
2022/12/31 01:59:20;;;;;;;1.83;0.80;;;;;;;14.13;97.14;100005.84;5094286;28;20554;-60
2022/12/31 02:01:51;;;;;;;1.33;0.70;;;;;;;14.35;95.62;100017.25;5096001;28;20044;-61
2022/12/31 02:04:21;;;;;;;0.93;0.53;;;;;;;14.55;94.19;100018.22;5094561;28;20130;-61
2022/12/31 02:06:56;;;;;;;1.27;0.73;;;;;;;14.55;93.84;100028.91;5095063;28;20140;-60
2022/12/31 02:09:23;;;;;;;0.95;0.65;;;;;;;14.53;94.46;100016.75;5094268;28;20063;-60
2022/12/31 02:11:49;;;;;;;3.13;0.70;;;;;;;14.66;93.01;100024.03;5077616;28;20044;-60
2022/12/31 02:14:24;;;;;;;1.35;0.52;;;;;;;14.78;92.00;100012.59;5095650;28;20040;-60
2022/12/31 02:17:20;;;;;;;1.15;0.70;;;;;;;14.80;91.90;100007.06;5095239;28;20117;-60
2022/12/31 02:20:18;;;;;;;0.60;0.57;;;;;;;14.89;90.49;100002.38;5095214;28;20056;-60
2022/12/31 02:26:03;;;;;;;0.75;0.60;;;;;;;14.91;90.40;100000.31;5111340;27;20364;-60
2022/12/31 02:29:03;;;;;;;2.13;0.50;;;;;;;14.84;90.43;100002.13;5110761;28;20082;-59
2022/12/31 02:31:36;;;;;;;0.85;0.50;;;;;;;14.85;90.41;100001.94;5111143;28;20409;-59
2022/12/31 02:34:08;;;;;;;1.33;0.50;;;;;;;14.91;89.26;100011.81;5111079;28;20044;-59
2022/12/31 02:36:41;;;;;;;0.43;0.43;;;;;;;14.90;89.41;100015.53;5111066;28;20044;-59
2022/12/31 02:39:09;;;;;;;0.50;0.50;;;;;;;14.87;89.23;100010.56;5110579;27;20652;-59
2022/12/31 02:41:51;;;;;;;0.90;0.65;;;;;;;14.94;88.92;100003.41;5111249;28;20382;-59
2022/12/31 02:44:34;;;;;;;;;;;;;;;15.05;88.29;100017.22;5111084;28;20104;-59
2022/12/31 02:50:13;;;;;;;1.48;0.55;;;;;;;14.86;89.17;100032.13;5110886;27;20381;-59
2022/12/31 02:53:07;;;;;;;1.52;0.70;;;;;;;14.83;89.65;100032.56;5111492;28;20108;-59
2022/12/31 02:55:51;;;;;;;1.20;0.73;;;;;;;15.01;88.42;100013.28;5110816;28;20050;-59
2022/12/31 03:04:32;;;;;;;3.92;0.90;;;;;;;15.00;88.80;100030.34;5103175;28;20047;-60
2022/12/31 03:07:01;;;;;;;1.65;0.75;;;;;;;14.97;88.89;100039.56;5109964;28;20042;-60
2022/12/31 03:09:28;;;;;;;3.03;0.77;;;;;;;14.94;89.52;100037.31;5110909;28;20115;-59
2022/12/31 03:14:42;;;;;;;0.85;0.50;;;;;;;15.07;88.39;100050.69;5109437;28;20401;-60
2022/12/31 03:17:09;;;;;;;1.60;0.63;;;;;;;15.06;88.70;100037.53;5110733;28;20054;-60
2022/12/31 03:22:26;;;;;;;0.77;0.60;;;;;;;15.05;88.97;100030.56;5110693;28;20121;-60
2022/12/31 03:25:32;;;;;;;3.30;1.00;;;;;;;15.06;88.86;100025.03;5109295;28;20044;-60
2022/12/31 03:27:48;;;;;;;2.17;0.82;;;;;;;15.02;89.46;100037.13;5110397;28;20044;-60
2022/12/31 03:30:17;;;;;;;2.05;0.70;;;;;;;15.05;89.21;100033.25;5109251;28;20040;-60
2022/12/31 03:32:46;;;;;;;3.90;0.93;;;;;;;15.13;88.77;100038.38;5110526;28;20039;-60
2022/12/31 03:35:15;;;;;;;2.60;0.73;;;;;;;15.11;89.16;100048.44;5109873;28;20043;-60
2022/12/31 03:37:42;;;;;;;3.38;0.85;;;;;;;15.03;89.73;100059.34;5110426;28;20044;-60
2022/12/31 03:40:11;;;;;;;2.53;0.90;;;;;;;15.09;89.56;100064.69;5110304;28;20043;-60
2022/12/31 03:42:37;;;;;;;2.15;0.68;;;;;;;15.08;89.92;100067.53;5110037;28;20404;-60
2022/12/31 03:45:05;;;;;;;5.28;0.90;;;;;;;14.93;91.05;100065.03;5092302;28;20048;-60
2022/12/31 03:47:32;;;;;;;2.72;0.75;;;;;;;14.92;91.12;100069.56;5109551;28;20050;-59
2022/12/31 03:49:58;;;;;;;2.90;0.88;;;;;;;14.90;91.45;100055.56;5110043;28;20089;-60
2022/12/31 03:52:25;;;;;;;5.78;0.90;;;;;;;14.94;91.22;100061.34;5108654;28;20124;-60
2022/12/31 03:54:52;;;;;;;5.32;0.70;;;;;;;14.89;91.54;100061.94;5110380;28;20052;-60
2022/12/31 03:57:18;;;;;;;1.40;0.60;;;;;;;14.91;91.69;100054.53;5109826;28;20044;-60
2022/12/31 03:59:46;;;;;;;1.45;0.70;;;;;;;14.89;91.52;100071.78;5103510;28;20087;-60
2022/12/31 04:02:13;;;;;;;2.13;0.60;;;;;;;15.06;90.84;100048.22;5095385;28;20072;-60
2022/12/31 04:04:39;;;;;;;0.45;0.45;;;;;;;14.93;91.22;100063.16;5096255;28;20059;-60
2022/12/31 04:07:06;;;;;;;3.67;0.80;;;;;;;14.83;92.41;100065.41;5095468;28;20072;-60
2022/12/31 04:09:33;;;;;;;2.53;0.80;;;;;;;14.79;92.60;100066.84;5095999;28;20048;-60
2022/12/31 04:12:00;;;;;;;0.82;0.70;;;;;;;14.85;92.29;100057.19;5096087;28;20059;-60
2022/12/31 04:14:27;;;;;;;1.65;0.65;;;;;;;14.78;92.72;100057.16;5096411;28;20062;-60
2022/12/31 04:16:53;;;;;;;1.65;0.65;;;;;;;14.83;92.11;100067.25;5095530;28;20044;-61
2022/12/31 04:19:20;;;;;;;1.80;0.70;;;;;;;14.88;91.43;100044.28;5094921;28;20504;-60
2022/12/31 04:21:47;;;;;;;2.30;0.60;;;;;;;14.87;91.49;100047.13;5094672;28;20506;-60
2022/12/31 04:24:13;;;;;;;0.45;0.43;;;;;;;15.01;90.27;100054.19;5094848;28;20040;-60
2022/12/31 04:26:41;;;;;;;1.50;0.65;;;;;;;14.96;90.26;100061.97;5094893;28;20043;-60
2022/12/31 04:29:08;;;;;;;1.55;0.70;;;;;;;14.98;90.00;100046.56;5095867;28;20070;-60
2022/12/31 04:31:35;;;;;;;2.55;0.90;;;;;;;14.94;90.23;100050.66;5095618;28;20040;-60
2022/12/31 04:34:01;;;;;;;2.95;0.63;;;;;;;15.04;89.44;100061.78;5095626;28;20052;-60
2022/12/31 04:36:28;;;;;;;2.17;0.82;;;;;;;15.05;89.20;100074.13;5095533;28;20053;-60
2022/12/31 04:38:55;;;;;;;1.55;0.90;;;;;;;15.00;89.29;100062.38;5095628;28;20047;-61
2022/12/31 04:41:22;;;;;;;2.42;0.80;;;;;;;15.10;88.49;100071.69;5095633;28;20382;-60
2022/12/31 04:43:51;;;;;;;2.05;0.95;;;;;;;14.98;89.59;100075.94;5095143;28;20485;-60
2022/12/31 04:46:24;;;;;;;1.58;0.52;;;;;;;15.14;87.84;100085.47;5094496;28;20040;-60
2022/12/31 04:48:51;;;;;;;4.82;1.00;;;;;;;15.18;88.06;100069.84;5095116;28;20044;-60
2022/12/31 04:51:19;;;;;;;1.83;0.77;;;;;;;15.08;88.58;100072.88;5095080;28;20040;-60
2022/12/31 04:53:46;;;;;;;4.25;0.88;;;;;;;15.18;88.02;100076.03;5094232;28;20055;-60
2022/12/31 04:56:12;;;;;;;2.30;0.93;;;;;;;15.19;87.66;100085.69;5095174;28;20044;-60
2022/12/31 04:58:39;;;;;;;2.60;0.95;;;;;;;15.16;87.92;100084.22;5096720;28;20496;-60
2022/12/31 05:01:07;;;;;;;2.72;1.00;;;;;;;15.16;87.68;100092.25;5092857;28;20058;-60
2022/12/31 05:03:35;;;;;;;0.90;0.85;;;;;;;15.29;86.82;100082.63;5095074;28;20051;-60
2022/12/31 05:06:06;;;;;;;2.88;0.80;;;;;;;15.31;86.67;100084.06;5094594;28;20044;-61
2022/12/31 05:08:33;;;;;;;;;;;;;;;15.32;86.42;100095.59;5095103;28;20524;-60
2022/12/31 05:11:00;;;;;;;3.35;0.80;;;;;;;15.32;86.66;100083.06;5094080;28;19969;-60
2022/12/31 05:13:27;;;;;;;2.85;1.05;;;;;;;15.27;86.48;100079.34;5093302;28;20101;-60
2022/12/31 05:15:58;;;;;;;;;;;;;;;15.21;86.71;100083.63;5095430;28;20040;-60
2022/12/31 05:18:25;;;;;;;4.20;0.82;;;;;;;15.37;85.66;100077.09;5094854;28;19969;-60
2022/12/31 05:20:51;;;;;;;2.60;1.00;;;;;;;15.31;86.53;100088.59;5094522;28;20382;-60
2022/12/31 05:23:18;;;;;;;7.38;1.08;;;;;;;15.34;85.88;100085.53;5093346;28;20067;-60
2022/12/31 05:25:46;;;;;;;4.35;0.98;;;;;;;15.35;85.92;100092.50;5093416;28;20068;-60
2022/12/31 05:28:14;;;;;;;4.07;1.10;;;;;;;15.30;85.75;100076.28;5094743;28;20040;-60
2022/12/31 05:30:42;;;;;;;3.40;0.90;;;;;;;15.33;85.94;100087.38;5094633;28;20051;-60
2022/12/31 05:33:09;;;;;;;3.25;1.00;;;;;;;15.34;86.20;100085.53;5094830;28;20043;-60
2022/12/31 05:35:36;;;;;;;4.80;1.20;;;;;;;15.44;85.26;100077.13;5076191;28;20040;-62
2022/12/31 05:38:02;;;;;;;13.20;1.52;;;;;;;15.36;85.71;100107.53;5093445;28;20044;-62
2022/12/31 05:40:29;;;;;;;3.03;1.08;;;;;;;15.46;85.36;100107.13;5094345;28;20039;-61
2022/12/31 05:42:56;;;;;;;3.80;1.15;;;;;;;15.40;85.80;100099.94;5094557;28;20075;-61
2022/12/31 05:45:23;;;;;;;3.22;0.80;;;;;;;15.33;86.15;100113.25;5093444;28;20051;-61
2022/12/31 05:47:54;;;;;;;3.90;1.00;;;;;;;15.36;86.44;100107.53;5093957;28;20509;-61
2022/12/31 05:50:20;;;;;;;5.53;1.13;;;;;;;15.34;86.59;100080.19;5094330;28;20044;-61
2022/12/31 05:52:54;;;;;;;2.75;1.17;;;;;;;15.45;86.02;100114.34;5093851;28;20390;-61
2022/12/31 05:55:21;;;;;;;3.40;1.10;;;;;;;15.39;86.09;100112.47;5094429;28;20048;-61
2022/12/31 05:57:48;;;;;;;5.15;1.10;;;;;;;15.36;86.85;100107.53;5093750;28;20055;-61
2022/12/31 06:00:15;;;;;;;5.38;1.20;;;;;;;15.40;87.25;100110.63;5093980;28;20032;-61
2022/12/31 06:02:42;;;;;;;4.38;1.30;;;;;;;15.41;86.52;100123.78;5092801;28;20044;-61
2022/12/31 06:05:09;;;;;;;5.47;1.20;;;;;;;15.46;86.64;100109.81;5093699;28;20070;-61
2022/12/31 06:07:36;;;;;;;4.53;1.52;;;;;;;15.44;86.99;100120.69;5091955;28;20051;-61
2022/12/31 06:10:03;;;;;;;4.88;1.40;;;;;;;15.44;86.48;100138.59;5093855;28;20050;-61
2022/12/31 06:12:30;;;;;;;3.58;1.08;;;;;;;15.45;86.80;100130.38;5094127;28;20040;-61
2022/12/31 06:14:57;;;;;;;8.40;1.40;;;;;;;15.40;86.71;100138.16;5093876;28;20068;-61
2022/12/31 06:17:23;;;;;;;3.45;1.13;;;;;;;15.42;86.89;100135.28;5093507;28;20565;-61
2022/12/31 06:19:50;;;;;;;10.13;1.23;;;;;;;15.45;86.65;100134.91;5094037;28;20090;-61
2022/12/31 06:22:17;;;;;;;3.78;1.25;;;;;;;15.42;86.92;100143.31;5093219;28;20094;-61
2022/12/31 06:24:44;;;;;;;4.90;1.27;;;;;;;15.48;85.97;100143.34;5075859;28;20131;-62
2022/12/31 06:27:10;;;;;;;3.05;1.05;;;;;;;15.44;86.30;100152.75;5093573;28;20040;-63
2022/12/31 06:29:37;;;;;;;2.90;0.98;;;;;;;15.58;85.43;100179.56;5092170;28;20036;-63
2022/12/31 06:32:04;;;;;;;3.22;1.20;;;;;;;15.58;85.23;100159.00;5092544;28;20101;-62
2022/12/31 06:34:31;;;;;;;4.70;1.33;;;;;;;15.57;84.84;100167.22;5092590;28;20044;-62
2022/12/31 06:36:58;;;;;;;5.55;1.25;;;;;;;15.66;84.42;100171.34;5093329;28;20040;-62
2022/12/31 06:39:25;;;;;;;5.22;1.30;;;;;;;15.66;84.62;100166.00;5093217;28;20036;-62
2022/12/31 06:41:52;;;;;;;4.88;1.35;;;;;;;15.72;84.05;100167.88;5093469;28;20401;-62
2022/12/31 06:44:21;;;;;;;8.68;1.30;;;;;;;15.76;83.66;100173.69;5093157;28;20040;-62
2022/12/31 06:46:49;;;;;;;3.83;1.13;;;;;;;15.80;83.39;100182.94;5093716;28;20497;-62
2022/12/31 06:49:16;;;;;;;3.67;1.40;;;;;;;15.78;83.52;100199.19;5093040;28;20152;-62
2022/12/31 06:51:44;;;;;;;4.13;1.30;;;;;;;15.79;83.56;100187.47;5093492;28;20052;-62
2022/12/31 06:54:12;;;;;;;3.92;1.42;;;;;;;15.83;83.46;100203.94;5092101;28;20127;-62
2022/12/31 06:56:39;;;;;;;4.53;1.20;;;;;;;15.72;83.91;100198.13;5091817;28;20048;-62
2022/12/31 06:59:23;;;;;;;7.25;1.58;;;;;;;15.74;83.66;100201.44;5086025;28;20049;-62
2022/12/31 07:02:11;;;;;;;6.78;1.30;;;;;;;15.70;83.84;100194.81;5071989;28;20039;-62
2022/12/31 07:07:33;;;;;;;7.20;1.42;;;;;;;15.72;84.42;100213.34;5097695;27;20393;-61
2022/12/31 07:10:16;;;;;;;5.35;1.55;;;;;;;15.73;84.09;100207.78;5109209;28;20075;-61
2022/12/31 07:12:57;;;;;;;5.68;1.60;;;;;;;15.74;83.92;100214.00;5109662;28;20047;-61
2022/12/31 07:15:53;;;;;;;8.43;1.45;;;;;;;15.68;84.63;100228.13;5110163;28;20043;-61
2022/12/31 07:18:48;;;;;;;9.43;1.40;;;;;;;15.74;83.67;100214.00;5110541;28;20040;-61
2022/12/31 07:21:19;;;;;;;4.85;1.38;;;;;;;15.69;84.00;100221.75;5110676;28;20051;-61
2022/12/31 07:23:48;;;;;;;3.85;1.25;;;;;;;15.71;83.79;100228.53;5110999;28;20048;-61
2022/12/31 07:26:48;;;;;;;6.22;1.45;;;;;;;15.68;84.10;100217.41;5110707;28;20645;-61
2022/12/31 07:29:49;;;;;;;7.00;1.80;;;;;;;15.67;83.78;100221.13;5110592;28;20516;-61
2022/12/31 07:32:42;;;;;;;4.03;1.55;;;;;;;15.78;83.14;100214.41;5110508;28;20036;-61
2022/12/31 07:35:24;;;;;;;6.38;1.60;;;;;;;15.83;82.96;100226.16;5110447;28;20040;-61
2022/12/31 07:38:22;;;;;;;6.97;1.50;;;;;;;15.81;82.84;100217.50;5110474;28;20463;-61
2022/12/31 07:40:59;;;;;;;13.43;1.45;;;;;;;15.78;82.71;100214.41;5110632;28;20131;-62
2022/12/31 07:43:41;;;;;;;3.80;1.30;;;;;;;15.93;81.88;100220.41;5098395;28;20044;-61
2022/12/31 07:46:18;;;;;;;6.97;1.50;;;;;;;15.85;82.48;100225.97;5110139;28;20036;-62
2022/12/31 07:48:44;;;;;;;5.38;1.50;;;;;;;15.84;82.00;100224.28;5110536;28;20067;-62
2022/12/31 07:51:11;;;;;;;4.75;1.50;;;;;;;15.93;81.23;100231.97;5108963;28;20097;-61
2022/12/31 07:53:38;;;;;;;4.35;1.50;;;;;;;15.97;80.99;100223.50;5110136;28;20050;-61
2022/12/31 07:56:07;;;;;;;7.22;1.50;;;;;;;15.85;81.55;100228.63;5110279;28;20375;-61
2022/12/31 07:58:49;;;;;;;7.80;1.70;;;;;;;15.79;82.35;100227.59;5109983;28;20498;-61
2022/12/31 08:01:29;;;;;;;6.63;1.40;;;;;;;15.88;81.12;100241.59;5110447;28;20043;-61
2022/12/31 08:04:08;;;;;;;9.60;1.52;;;;;;;15.96;80.22;100232.56;5109879;28;20039;-61
2022/12/31 08:07:16;;;;;;;6.00;1.85;;;;;;;15.92;80.43;100246.34;5107975;28;20048;-61
2022/12/31 08:10:08;;;;;;;4.65;1.40;;;;;;;15.91;80.71;100260.72;5091736;28;20082;-61
2022/12/31 08:12:39;;;;;;;7.95;1.70;;;;;;;16.03;79.88;100254.81;5109000;28;20507;-61
2022/12/31 08:15:13;;;;;;;7.97;1.77;;;;;;;15.96;80.03;100260.16;5109899;28;20097;-61
2022/12/31 08:17:40;;;;;;;7.13;1.73;;;;;;;15.95;80.31;100258.47;5102164;28;20040;-62
2022/12/31 08:20:11;;;;;;;5.13;1.40;;;;;;;15.96;79.46;100260.16;5096080;28;20048;-62
2022/12/31 08:26:02;;;;;;;6.20;1.38;;;;;;;16.05;79.30;100264.28;5131442;27;20136;-62
2022/12/31 08:28:50;;;;;;;4.22;1.40;;;;;;;15.91;80.24;100267.94;5111035;28;20040;-61
2022/12/31 08:31:24;;;;;;;5.05;1.50;;;;;;;16.06;78.73;100271.28;5093264;28;20044;-62
2022/12/31 08:33:59;;;;;;;6.32;1.73;;;;;;;16.06;79.04;100268.63;5102759;28;20048;-62
2022/12/31 08:39:36;;;;;;;4.95;1.40;;;;;;;16.11;78.62;100271.50;5111623;27;20354;-61
2022/12/31 08:42:15;;;;;;;5.40;1.50;;;;;;;16.09;78.65;100286.09;5111379;28;20040;-62
2022/12/31 08:44:54;;;;;;;5.75;1.70;;;;;;;16.03;79.00;100290.41;5111037;28;20047;-62
2022/12/31 08:48:00;;;;;;;7.68;1.70;;;;;;;16.08;78.76;100305.84;5111472;28;20097;-61
2022/12/31 08:50:28;;;;;;;4.95;1.58;;;;;;;16.16;78.28;100304.88;5109284;28;20481;-61
2022/12/31 08:52:55;;;;;;;4.97;1.52;;;;;;;16.23;78.09;100306.53;5110959;28;20070;-62
2022/12/31 08:55:22;;;;;;;8.00;1.70;;;;;;;16.17;78.60;100304.66;5110376;28;20036;-62
2022/12/31 09:00:29;;;;;;;6.07;1.65;;;;;;;16.25;77.49;100301.78;5066881;27;20397;-61
2022/12/31 09:03:36;;;;;;;7.60;1.67;;;;;;;16.26;77.73;100319.53;5090656;28;20044;-61
2022/12/31 09:06:34;;;;;;;9.23;1.70;;;;;;;16.24;77.82;100300.13;5089647;28;20071;-61
2022/12/31 09:09:20;;;;;;;5.82;1.50;;;;;;;16.15;78.63;100312.06;5090781;28;20048;-61
2022/12/31 09:11:59;;;;;;;5.40;1.50;;;;;;;16.18;78.06;100308.97;5090521;28;20048;-61
2022/12/31 09:14:46;;;;;;;6.38;1.60;;;;;;;16.17;78.46;100335.94;5090617;28;20040;-62
2022/12/31 09:17:41;;;;;;;10.63;2.75;;;;;;;16.15;79.50;100327.28;5090261;28;20070;-62
2022/12/31 09:20:20;;;;;;;7.03;1.90;;;;;;;16.15;78.70;100338.81;5090624;28;20036;-62
2022/12/31 09:22:48;;;;;;;5.75;1.67;;;;;;;16.22;78.35;100357.56;5090306;28;20058;-62
2022/12/31 09:25:17;;;;;;;7.95;1.67;;;;;;;16.27;78.38;100363.16;5090496;28;20052;-61
2022/12/31 09:28:10;;;;;;;6.55;1.75;;;;;;;16.28;77.81;100370.13;5090497;28;20044;-62
2022/12/31 09:30:49;;;;;;;9.38;1.80;;;;;;;16.31;78.47;100383.13;5088707;28;20067;-62
2022/12/31 09:33:50;;;;;;;6.25;1.50;;;;;;;16.21;78.93;100388.88;5090207;28;20032;-62
2022/12/31 09:36:40;;;;;;;7.30;1.73;;;;;;;16.32;78.23;100392.81;5089460;28;20051;-62
2022/12/31 09:39:20;;;;;;;7.20;1.65;;;;;;;16.35;77.96;100392.41;5088830;28;20048;-62
2022/12/31 09:42:27;;;;;;;10.20;1.70;;;;;;;16.38;77.27;100405.41;5089734;28;20052;-62
2022/12/31 09:45:33;;;;;;;4.82;1.52;;;;;;;16.35;77.73;100395.06;5088811;28;20139;-62
2022/12/31 09:48:33;;;;;;;9.27;1.70;;;;;;;16.36;78.16;100398.59;5089598;28;20036;-62
2022/12/31 09:51:40;;;;;;;7.85;1.95;;;;;;;16.44;77.06;100409.13;5089691;28;20055;-62
2022/12/31 09:57:19;;;;;;;10.18;1.70;;;;;;;16.37;77.12;100414.47;5110937;27;20383;-61
2022/12/31 09:59:58;;;;;;;6.82;1.60;;;;;;;16.35;77.80;100408.47;5110854;28;20040;-61
2022/12/31 10:02:48;;;;;;;7.50;1.48;;;;;;;16.47;76.38;100428.28;5110872;28;20072;-62
2022/12/31 10:05:45;;;;;;;7.13;1.70;;;;;;;16.47;76.83;100435.50;5110855;28;20036;-61
2022/12/31 10:08:48;;;;;;;4.68;1.40;;;;;;;16.60;76.02;100438.22;5108999;28;20048;-62
2022/12/31 10:11:27;;;;;;;7.95;1.60;;;;;;;16.46;76.54;100434.69;5109777;28;20043;-62
2022/12/31 10:14:06;;;;;;;4.88;1.60;;;;;;;16.56;75.58;100433.47;5110843;28;20036;-61
2022/12/31 10:17:02;;;;;;;7.05;1.88;;;;;;;16.59;75.93;100439.25;5109215;28;20128;-63
2022/12/31 10:20:09;;;;;;;7.57;2.95;;;;;;;16.61;75.60;100442.56;5110791;28;20052;-63
2022/12/31 10:23:03;;;;;;;8.15;2.00;;;;;;;16.66;75.35;100442.78;5110365;28;20062;-62
2022/12/31 10:26:01;;;;;;;7.50;1.70;;;;;;;16.61;75.79;100436.38;5110614;28;20393;-63
2022/12/31 10:28:44;;;;;;;7.90;1.80;;;;;;;16.60;76.06;100432.03;5109165;28;20039;-63
2022/12/31 10:34:34;;;;;;;6.35;1.88;;;;;;;16.49;76.27;100439.63;5111000;27;20395;-62
2022/12/31 10:37:09;;;;;;;5.50;1.80;;;;;;;16.51;75.92;100432.22;5092492;28;20505;-61
2022/12/31 10:39:51;;;;;;;10.02;1.80;;;;;;;16.60;76.25;100438.22;5111076;28;20399;-62
2022/12/31 10:45:35;;;;;;;7.13;1.90;;;;;;;16.71;75.02;100447.53;5110862;27;20840;-62
2022/12/31 10:48:42;;;;;;;5.55;1.40;;;;;;;16.77;74.91;100440.53;5109879;28;20051;-62
2022/12/31 10:51:36;;;;;;;5.97;1.80;;;;;;;16.72;74.82;100421.56;5110650;28;20055;-63
2022/12/31 10:54:27;;;;;;;7.15;1.70;;;;;;;16.78;75.28;100420.75;5110708;28;20039;-63
2022/12/31 10:57:30;;;;;;;5.65;1.70;;;;;;;16.97;73.94;100425.38;5109862;28;20135;-63
2022/12/31 11:00:18;;;;;;;8.68;1.73;;;;;;;16.95;74.51;100399.78;5104439;28;20444;-62
2022/12/31 11:03:25;;;;;;;8.15;2.13;;;;;;;16.96;73.58;100402.28;5072455;28;20048;-62
2022/12/31 11:06:28;;;;;;;6.65;1.55;;;;;;;16.86;74.38;100420.59;5088766;28;20074;-62
2022/12/31 11:09:28;;;;;;;9.23;1.70;;;;;;;16.81;74.85;100417.69;5109872;27;20054;-63
2022/12/31 11:12:34;;;;;;;5.82;1.58;;;;;;;16.82;74.35;100425.50;5089970;28;20090;-63
2022/12/31 11:15:14;;;;;;;;;;;;;;;16.84;75.01;100428.00;5107596;28;20043;-62
2022/12/31 11:18:05;;;;;;;5.53;1.77;;;;;;;16.89;74.41;100422.88;5108721;28;19920;-62
2022/12/31 11:21:12;;;;;;;8.00;1.83;;;;;;;16.99;73.92;100434.03;5100163;28;20485;-62
2022/12/31 11:24:18;;;;;;;7.18;1.70;;;;;;;17.07;73.33;100424.97;5089720;28;20045;-62
2022/12/31 11:29:48;;;;;;;5.00;1.30;;;;;;;16.92;73.52;100435.03;5110830;27;20372;-63
2022/12/31 11:32:55;;;;;;;9.18;1.83;;;;;;;16.89;74.16;100442.44;5127035;28;20061;-62
2022/12/31 11:35:34;;;;;;;6.95;2.03;;;;;;;16.81;74.39;100436.44;5090297;28;20056;-62
2022/12/31 11:38:20;;;;;;;10.35;1.80;;;;;;;16.85;73.85;100419.78;5089090;28;20547;-61
2022/12/31 11:41:09;;;;;;;10.02;1.80;;;;;;;16.86;74.15;100429.47;5090367;28;20055;-61
2022/12/31 11:44:02;;;;;;;9.93;2.28;;;;;;;16.76;74.36;100423.63;5090385;28;20044;-61
2022/12/31 11:46:50;;;;;;;8.65;1.90;;;;;;;16.81;74.00;100431.09;5090066;28;20040;-61
2022/12/31 11:49:42;;;;;;;10.45;1.83;;;;;;;16.71;74.46;100428.78;5089103;28;20049;-62
2022/12/31 11:55:31;;;;;;;8.30;1.80;;;;;;;16.70;74.23;100435.16;5070560;28;20910;-63
2022/12/31 11:58:07;;;;;;;8.30;1.67;;;;;;;16.70;73.72;100427.97;5069408;28;20063;-63
2022/12/31 12:00:34;;;;;;;7.60;1.80;;;;;;;16.71;73.55;100444.84;5070457;28;20051;-62
2022/12/31 12:03:03;;;;;;;12.23;2.65;;;;;;;16.66;73.91;100437.44;5070237;28;20102;-63
2022/12/31 12:05:30;;;;;;;8.82;1.85;;;;;;;16.73;73.27;100436.59;5070525;28;20045;-62
2022/12/31 12:07:58;;;;;;;7.07;1.58;;;;;;;16.74;73.00;100436.41;5069357;28;20040;-62
2022/12/31 12:10:35;;;;;;;8.18;1.98;;;;;;;16.72;73.55;100442.97;5070521;28;20049;-62
2022/12/31 12:13:21;;;;;;;8.32;1.70;;;;;;;16.59;73.88;100439.25;5070293;28;20041;-62
2022/12/31 12:15:52;;;;;;;7.90;1.70;;;;;;;16.66;73.32;100421.34;5069930;28;20037;-63
2022/12/31 12:18:29;;;;;;;7.10;2.00;;;;;;;16.60;73.75;100413.28;5068720;28;20036;-63
2022/12/31 12:23:57;;;;;;;10.63;2.03;;;;;;;16.66;73.65;100426.72;5131664;27;20637;-62
2022/12/31 12:26:27;;;;;;;13.20;3.33;;;;;;;16.63;73.66;100423.63;5093281;28;20050;-63
2022/12/31 12:28:54;;;;;;;11.27;2.67;;;;;;;16.70;72.91;100427.13;5111334;28;20039;-62
2022/12/31 12:31:22;;;;;;;8.05;2.00;;;;;;;16.61;73.38;100417.63;5092649;28;20044;-63
2022/12/31 12:33:51;;;;;;;8.27;2.00;;;;;;;16.58;73.90;100421.53;5102686;28;20044;-63
2022/12/31 12:36:19;;;;;;;8.05;2.05;;;;;;;16.65;73.35;100417.03;5072441;28;20040;-62
2022/12/31 12:38:46;;;;;;;13.00;2.10;;;;;;;16.69;73.44;100417.44;5071930;28;20044;-62
2022/12/31 12:41:24;;;;;;;6.53;1.67;;;;;;;16.62;76.66;100422.78;5072781;28;20094;-63
2022/12/31 12:44:14;;;;;;;9.05;1.83;;;;;;;16.59;76.32;100425.03;5090281;28;20554;-62
2022/12/31 12:46:51;;;;;;;11.35;2.05;;;;;;;16.64;75.34;100435.97;5072625;28;20127;-62
2022/12/31 12:49:28;;;;;;;6.78;2.00;;;;;;;16.59;75.15;100452.66;5090176;28;20069;-62